createdAt,value
2018-07-14T00:04:14.433Z,1014.2
2018-07-14T00:09:26.985Z,1014.2
2018-07-14T00:14:39.844Z,1014.2
2018-07-14T00:19:52.656Z,1014.2
2018-07-14T00:30:18.283Z,1014.2
2018-07-14T00:35:31.141Z,1014.2
2018-07-14T00:40:44.045Z,1014.1
2018-07-14T00:45:56.987Z,1014.1
2018-07-14T00:51:09.591Z,1014.1
2018-07-14T00:56:22.431Z,1014.1
2018-07-14T01:01:35.271Z,1014.1
2018-07-14T01:06:48.110Z,1014.1
2018-07-14T01:12:01.699Z,1014.1
2018-07-14T01:17:13.797Z,1014.1
2018-07-14T01:22:26.557Z,1014.1
2018-07-14T01:27:39.384Z,1014.1
2018-07-14T01:32:52.319Z,1014.1
2018-07-14T01:38:05.056Z,1014.1
2018-07-14T01:48:30.703Z,1014
2018-07-14T01:53:43.527Z,1014
2018-07-14T01:58:56.427Z,1014
2018-07-14T02:04:09.193Z,1014.1
2018-07-14T02:09:21.993Z,1014.1
2018-07-14T02:14:34.831Z,1014.1
2018-07-14T02:19:47.674Z,1014.2
2018-07-14T02:30:13.361Z,1014.2
2018-07-14T02:35:26.151Z,1014.2
2018-07-14T02:40:38.958Z,1014.2
2018-07-14T02:45:51.802Z,1014.2
2018-07-14T02:51:04.684Z,1014.2
2018-07-14T02:56:17.544Z,1014.2
2018-07-14T03:01:30.303Z,1014.2
2018-07-14T03:06:43.148Z,1014.1
2018-07-14T03:11:55.974Z,1014.1
2018-07-14T03:17:08.747Z,1014
2018-07-14T03:22:21.599Z,1013.9
2018-07-14T03:27:34.456Z,1013.9
2018-07-14T03:32:48.279Z,1014
2018-07-14T03:38:00.124Z,1013.9
2018-07-14T03:43:12.918Z,1013.9
2018-07-14T03:48:25.712Z,1013.9
2018-07-14T03:53:38.532Z,1014
2018-07-14T03:58:51.472Z,1014
2018-07-14T04:04:04.335Z,1014
2018-07-14T04:09:17.040Z,1014
2018-07-14T04:14:30.189Z,1014
2018-07-14T04:19:42.670Z,1014
2018-07-14T04:24:55.525Z,1014
2018-07-14T04:30:08.337Z,1014
2018-07-14T04:35:21.194Z,1014
2018-07-14T04:40:33.981Z,1014
2018-07-14T04:45:46.815Z,1014
2018-07-14T04:50:59.858Z,1014
2018-07-14T04:56:12.458Z,1014
2018-07-14T05:01:25.333Z,1014.1
2018-07-14T05:06:38.229Z,1014.1
2018-07-14T05:17:03.773Z,1013.9
2018-07-14T05:22:16.599Z,1014
2018-07-14T05:27:29.407Z,1014
2018-07-14T05:32:42.260Z,1014
2018-07-14T05:37:55.067Z,1014.1
2018-07-14T05:43:07.985Z,1014.1
2018-07-14T05:48:20.748Z,1014.2
2018-07-14T05:53:33.549Z,1014.2
2018-07-14T05:58:46.574Z,1014.2
2018-07-14T06:03:59.216Z,1014.2
2018-07-14T06:09:12.239Z,1014.3
2018-07-14T06:14:24.888Z,1014.4
2018-07-14T06:19:37.747Z,1014.5
2018-07-14T06:24:50.516Z,1014.5
2018-07-14T06:40:29.164Z,1014.5
2018-07-14T06:45:43.108Z,1014.5
2018-07-14T06:56:07.608Z,1014.5
2018-07-14T07:01:20.305Z,1014.7
2018-07-14T07:06:33.124Z,1014.7
2018-07-14T07:16:58.934Z,1014.6
2018-07-14T07:22:11.617Z,1014.7
2018-07-14T07:27:24.468Z,1014.7
2018-07-14T07:32:37.324Z,1014.8
2018-07-14T07:37:50.089Z,1014.7
2018-07-14T07:43:02.932Z,1014.7
2018-07-14T07:48:15.764Z,1014.7
2018-07-14T07:58:41.399Z,1014.7
2018-07-14T08:03:54.280Z,1014.6
2018-07-14T08:09:07.143Z,1014.7
2018-07-14T08:14:19.952Z,1014.6
2018-07-14T08:19:32.720Z,1014.5
2018-07-14T08:24:45.594Z,1014.6
2018-07-14T08:29:58.482Z,1014.6
2018-07-14T08:35:11.213Z,1014.7
2018-07-14T08:40:24.040Z,1014.6
2018-07-14T08:45:37.736Z,1014.6
2018-07-14T08:56:02.538Z,1014.6
2018-07-14T09:01:15.355Z,1014.6
2018-07-14T09:06:28.233Z,1014.6
2018-07-14T09:11:41.079Z,1014.6
2018-07-14T09:16:53.877Z,1014.5
2018-07-14T09:22:06.673Z,1014.5
2018-07-14T09:27:19.648Z,1014.5
2018-07-14T09:32:32.560Z,1014.4
2018-07-14T09:37:45.217Z,1014.4
2018-07-14T09:42:57.984Z,1014.4
2018-07-14T09:48:10.834Z,1014.5
2018-07-14T09:53:23.646Z,1014.4
2018-07-14T09:58:36.483Z,1014.3
2018-07-14T10:03:49.390Z,1014.4
2018-07-14T10:09:02.192Z,1014.4
2018-07-14T10:14:15.148Z,1014.2
2018-07-14T10:24:40.661Z,1014.1
2018-07-14T10:29:53.503Z,1014.1
2018-07-14T10:35:06.282Z,1014.2
2018-07-14T10:45:32.073Z,1014.1
2018-07-14T11:01:10.472Z,1014
2018-07-14T11:11:36.097Z,1013.9
2018-07-14T11:16:48.979Z,1013.9
2018-07-14T11:22:02.093Z,1013.9
2018-07-14T11:37:40.345Z,1013.8
2018-07-14T11:42:53.099Z,1013.8
2018-07-14T11:53:18.741Z,1013.6
2018-07-14T11:58:31.639Z,1013.5
2018-07-14T12:03:44.571Z,1013.5
2018-07-14T12:08:57.225Z,1013.5
2018-07-14T12:14:10.058Z,1013.4
2018-07-14T12:19:22.902Z,1013.4
2018-07-14T12:29:48.548Z,1013.2
2018-07-14T12:35:01.454Z,1013.2
2018-07-14T12:40:14.450Z,1013.2
2018-07-14T12:50:39.957Z,1013.1
2018-07-14T12:55:52.836Z,1013
2018-07-14T13:01:05.553Z,1012.9
2018-07-14T13:06:18.367Z,1012.9
2018-07-14T13:11:31.270Z,1012.9
2018-07-14T13:21:56.841Z,1012.9
2018-07-14T13:27:09.721Z,1012.7
2018-07-14T13:32:22.666Z,1012.7
2018-07-14T13:42:48.190Z,1012.6
2018-07-14T13:48:01.038Z,1012.5
2018-07-14T13:53:13.946Z,1012.6
2018-07-14T13:58:26.653Z,1012.5
2018-07-14T14:03:39.492Z,1012.4
2018-07-14T14:08:54.104Z,1012.4
2018-07-14T14:14:05.691Z,1012.3
2018-07-14T14:24:30.831Z,1012.2
2018-07-14T14:29:43.650Z,1012.3
2018-07-14T14:34:56.552Z,1012.2
2018-07-14T14:40:09.308Z,1012.2
2018-07-14T14:45:22.202Z,1012.1
2018-07-14T14:50:35.000Z,1012.1
2018-07-14T14:55:47.893Z,1012
2018-07-14T15:01:00.692Z,1012
2018-07-14T15:06:13.589Z,1012
2018-07-14T15:11:26.285Z,1012.1
2018-07-14T15:16:39.129Z,1011.9
2018-07-14T15:21:51.933Z,1011.9
2018-07-14T15:27:04.767Z,1011.8
2018-07-14T15:32:17.670Z,1011.8
2018-07-14T15:37:30.423Z,1011.8
2018-07-14T15:42:43.320Z,1011.8
2018-07-14T15:47:56.131Z,1011.8
2018-07-14T15:53:08.927Z,1011.8
2018-07-14T15:58:21.749Z,1011.7
2018-07-14T16:08:47.455Z,1011.7
2018-07-14T16:14:00.322Z,1011.7
2018-07-14T16:19:13.099Z,1011.7
2018-07-14T16:24:25.941Z,1011.7
2018-07-14T16:29:38.797Z,1011.7
2018-07-14T16:34:51.603Z,1011.7
2018-07-14T16:45:17.258Z,1011.7
2018-07-14T16:50:30.297Z,1011.6
2018-07-14T16:55:42.881Z,1011.6
2018-07-14T17:00:55.744Z,1011.7
2018-07-14T17:06:08.729Z,1011.7
2018-07-14T17:11:21.388Z,1011.6
2018-07-14T17:16:34.308Z,1011.6
2018-07-14T17:21:47.062Z,1011.7
2018-07-14T17:27:00.032Z,1011.6
2018-07-14T17:32:12.729Z,1011.7
2018-07-14T17:42:38.510Z,1011.6
2018-07-14T17:53:04.014Z,1011.6
2018-07-14T17:58:16.951Z,1011.6
2018-07-14T18:03:29.687Z,1011.6
2018-07-14T18:08:42.525Z,1011.6
2018-07-14T18:13:55.399Z,1011.6
2018-07-14T18:24:21.005Z,1011.6
2018-07-14T18:29:33.815Z,1011.6
2018-07-14T18:34:46.661Z,1011.6
2018-07-14T18:39:59.540Z,1011.6
2018-07-14T18:45:12.310Z,1011.7
2018-07-14T18:50:25.138Z,1011.7
2018-07-14T18:55:38.048Z,1011.7
2018-07-14T19:00:50.785Z,1011.8
2018-07-14T19:11:16.518Z,1011.9
2018-07-14T19:16:29.272Z,1012
2018-07-14T19:21:42.093Z,1011.9
2018-07-14T19:26:54.957Z,1012
2018-07-14T19:32:07.825Z,1012
2018-07-14T19:37:20.594Z,1012
2018-07-14T19:42:33.428Z,1011.9
2018-07-14T19:47:46.412Z,1012
2018-07-14T19:52:59.081Z,1012
2018-07-14T19:58:11.917Z,1012.1
2018-07-14T20:03:24.838Z,1012.1
2018-07-14T20:08:37.571Z,1012.2
2018-07-14T20:13:51.109Z,1012.2
2018-07-14T20:19:03.206Z,1012.1
2018-07-14T20:24:16.051Z,1012.2
2018-07-14T20:29:28.962Z,1012.2
2018-07-14T20:34:41.777Z,1012.2
2018-07-14T20:39:54.524Z,1012.3
2018-07-14T20:50:20.181Z,1012.4
2018-07-14T20:55:33.041Z,1012.4
2018-07-14T21:00:45.830Z,1012.4
2018-07-14T21:05:58.653Z,1012.4
2018-07-14T21:11:11.521Z,1012.4
2018-07-14T21:16:24.351Z,1012.4
2018-07-14T21:21:37.230Z,1012.4
2018-07-14T21:26:50.021Z,1012.4
2018-07-14T21:32:02.794Z,1012.4
2018-07-14T21:37:15.684Z,1012.4
2018-07-14T21:42:28.492Z,1012.5
2018-07-14T21:47:41.282Z,1012.4
2018-07-14T21:52:54.131Z,1012.5
2018-07-14T21:58:06.964Z,1012.5
2018-07-14T22:03:19.774Z,1012.4
2018-07-14T22:08:32.649Z,1012.5
2018-07-14T22:13:45.682Z,1012.5
2018-07-14T22:18:58.564Z,1012.5
2018-07-14T22:24:11.067Z,1012.5
2018-07-14T22:29:23.974Z,1012.5
2018-07-14T22:39:49.540Z,1012.5
2018-07-14T22:45:02.381Z,1012.5
2018-07-14T22:50:15.439Z,1012.5
2018-07-14T22:55:28.261Z,1012.5
2018-07-14T23:00:41.016Z,1012.5
2018-07-14T23:05:53.735Z,1012.5
2018-07-14T23:11:06.504Z,1012.6
2018-07-14T23:21:32.168Z,1012.7
2018-07-14T23:26:45.074Z,1012.7
2018-07-14T23:31:57.828Z,1012.6
2018-07-14T23:37:10.636Z,1012.6
2018-07-14T23:42:23.560Z,1012.6
2018-07-14T23:47:38.847Z,1012.6
2018-07-14T23:52:50.480Z,1012.6
2018-07-14T23:58:02.013Z,1012.5
